sensor_id;sensor_type;location;lat;lon;timestamp;P1;durP1;ratioP1;P2;durP2;ratioP2
545;SDS011;259;53.304;9.816;2022-11-23T00:00:00;4.63;;;4.23;;
545;SDS011;259;53.304;9.816;2022-11-23T00:02:25;4.43;;;4.13;;
545;SDS011;259;53.304;9.816;2022-11-23T00:04:51;4.87;;;4.50;;
545;SDS011;259;53.304;9.816;2022-11-23T00:07:16;5.30;;;4.90;;
545;SDS011;259;53.304;9.816;2022-11-23T00:09:42;5.30;;;4.80;;
545;SDS011;259;53.304;9.816;2022-11-23T00:12:07;4.90;;;4.50;;
545;SDS011;259;53.304;9.816;2022-11-23T00:14:33;5.20;;;4.80;;
545;SDS011;259;53.304;9.816;2022-11-23T00:16:59;4.73;;;4.33;;
545;SDS011;259;53.304;9.816;2022-11-23T00:19:25;3.90;;;3.60;;
545;SDS011;259;53.304;9.816;2022-11-23T00:21:50;5.03;;;4.50;;
545;SDS011;259;53.304;9.816;2022-11-23T00:24:16;4.60;;;4.20;;
545;SDS011;259;53.304;9.816;2022-11-23T00:26:41;5.27;;;4.77;;
545;SDS011;259;53.304;9.816;2022-11-23T00:29:07;4.40;;;4.10;;
545;SDS011;259;53.304;9.816;2022-11-23T00:31:32;4.37;;;4.07;;
545;SDS011;259;53.304;9.816;2022-11-23T00:33:58;3.97;;;3.73;;
545;SDS011;259;53.304;9.816;2022-11-23T00:36:24;4.27;;;3.87;;
545;SDS011;259;53.304;9.816;2022-11-23T00:38:51;4.93;;;4.53;;
545;SDS011;259;53.304;9.816;2022-11-23T00:41:19;4.40;;;4.10;;
545;SDS011;259;53.304;9.816;2022-11-23T00:43:47;4.37;;;4.07;;
545;SDS011;259;53.304;9.816;2022-11-23T00:46:14;4.60;;;4.23;;
545;SDS011;259;53.304;9.816;2022-11-23T00:48:40;4.53;;;4.13;;
545;SDS011;259;53.304;9.816;2022-11-23T00:51:08;4.37;;;4.07;;
545;SDS011;259;53.304;9.816;2022-11-23T00:53:35;3.90;;;3.60;;
545;SDS011;259;53.304;9.816;2022-11-23T00:56:01;4.53;;;4.17;;
545;SDS011;259;53.304;9.816;2022-11-23T00:58:28;4.10;;;3.80;;
545;SDS011;259;53.304;9.816;2022-11-23T01:00:58;5.10;;;4.70;;
545;SDS011;259;53.304;9.816;2022-11-23T01:03:36;4.60;;;4.20;;
545;SDS011;259;53.304;9.816;2022-11-23T01:06:07;4.83;;;4.40;;
545;SDS011;259;53.304;9.816;2022-11-23T01:08:34;4.80;;;4.40;;
545;SDS011;259;53.304;9.816;2022-11-23T01:11:01;3.83;;;3.53;;
545;SDS011;259;53.304;9.816;2022-11-23T01:13:28;4.00;;;3.70;;
545;SDS011;259;53.304;9.816;2022-11-23T01:15:54;4.73;;;4.20;;
545;SDS011;259;53.304;9.816;2022-11-23T01:18:20;3.97;;;3.67;;
545;SDS011;259;53.304;9.816;2022-11-23T01:20:46;3.67;;;3.47;;
545;SDS011;259;53.304;9.816;2022-11-23T01:23:11;3.77;;;3.43;;
545;SDS011;259;53.304;9.816;2022-11-23T01:25:37;3.87;;;3.57;;
545;SDS011;259;53.304;9.816;2022-11-23T01:28:03;3.83;;;3.53;;
545;SDS011;259;53.304;9.816;2022-11-23T01:30:28;3.77;;;3.47;;
545;SDS011;259;53.304;9.816;2022-11-23T01:32:54;3.93;;;3.70;;
545;SDS011;259;53.304;9.816;2022-11-23T01:35:19;4.13;;;3.80;;
545;SDS011;259;53.304;9.816;2022-11-23T01:37:45;3.67;;;3.37;;
545;SDS011;259;53.304;9.816;2022-11-23T01:40:10;3.53;;;3.23;;
545;SDS011;259;53.304;9.816;2022-11-23T01:42:47;3.50;;;3.30;;
545;SDS011;259;53.304;9.816;2022-11-23T01:48:20;3.53;;;3.30;;
545;SDS011;259;53.304;9.816;2022-11-23T01:50:50;3.17;;;2.97;;
545;SDS011;259;53.304;9.816;2022-11-23T01:53:17;3.70;;;3.30;;
545;SDS011;259;53.304;9.816;2022-11-23T01:55:44;3.87;;;3.57;;
545;SDS011;259;53.304;9.816;2022-11-23T01:58:13;4.13;;;3.83;;
545;SDS011;259;53.304;9.816;2022-11-23T02:00:42;3.93;;;3.63;;
545;SDS011;259;53.304;9.816;2022-11-23T02:03:08;4.30;;;3.67;;
545;SDS011;259;53.304;9.816;2022-11-23T02:05:39;3.47;;;3.27;;
545;SDS011;259;53.304;9.816;2022-11-23T02:08:07;3.90;;;3.60;;
545;SDS011;259;53.304;9.816;2022-11-23T02:10:34;3.63;;;3.43;;
545;SDS011;259;53.304;9.816;2022-11-23T02:13:06;3.37;;;3.17;;
545;SDS011;259;53.304;9.816;2022-11-23T02:15:34;3.80;;;3.20;;
545;SDS011;259;53.304;9.816;2022-11-23T02:18:01;5.00;;;3.53;;
545;SDS011;259;53.304;9.816;2022-11-23T02:20:29;3.90;;;3.60;;
545;SDS011;259;53.304;9.816;2022-11-23T02:28:38;3.57;;;3.27;;
545;SDS011;259;53.304;9.816;2022-11-23T02:31:09;3.60;;;3.30;;
545;SDS011;259;53.304;9.816;2022-11-23T02:33:38;3.40;;;3.10;;
545;SDS011;259;53.304;9.816;2022-11-23T02:39:06;2.80;;;2.60;;
545;SDS011;259;53.304;9.816;2022-11-23T02:41:41;2.70;;;2.50;;
545;SDS011;259;53.304;9.816;2022-11-23T02:44:16;2.93;;;2.73;;
545;SDS011;259;53.304;9.816;2022-11-23T02:46:48;3.00;;;2.80;;
545;SDS011;259;53.304;9.816;2022-11-23T02:49:14;3.17;;;2.97;;
545;SDS011;259;53.304;9.816;2022-11-23T02:51:40;2.90;;;2.70;;
545;SDS011;259;53.304;9.816;2022-11-23T02:54:05;3.20;;;2.90;;
545;SDS011;259;53.304;9.816;2022-11-23T02:56:31;3.17;;;2.60;;
545;SDS011;259;53.304;9.816;2022-11-23T02:58:56;3.90;;;3.60;;
545;SDS011;259;53.304;9.816;2022-11-23T03:01:22;3.07;;;2.87;;
545;SDS011;259;53.304;9.816;2022-11-23T03:03:47;3.13;;;2.93;;
545;SDS011;259;53.304;9.816;2022-11-23T03:06:13;3.40;;;3.10;;
545;SDS011;259;53.304;9.816;2022-11-23T03:08:39;3.07;;;2.87;;
545;SDS011;259;53.304;9.816;2022-11-23T03:11:04;3.37;;;3.07;;
545;SDS011;259;53.304;9.816;2022-11-23T03:13:30;2.47;;;2.30;;
545;SDS011;259;53.304;9.816;2022-11-23T03:15:55;2.67;;;2.47;;
545;SDS011;259;53.304;9.816;2022-11-23T03:18:21;3.27;;;3.07;;
545;SDS011;259;53.304;9.816;2022-11-23T03:20:47;2.93;;;2.73;;
545;SDS011;259;53.304;9.816;2022-11-23T03:23:12;2.60;;;2.50;;
545;SDS011;259;53.304;9.816;2022-11-23T03:25:38;2.73;;;2.53;;
545;SDS011;259;53.304;9.816;2022-11-23T03:28:03;2.87;;;2.67;;
545;SDS011;259;53.304;9.816;2022-11-23T03:30:29;3.30;;;3.10;;
545;SDS011;259;53.304;9.816;2022-11-23T03:32:55;2.37;;;2.20;;
545;SDS011;259;53.304;9.816;2022-11-23T03:35:21;2.70;;;2.50;;
545;SDS011;259;53.304;9.816;2022-11-23T03:37:47;3.00;;;2.80;;
545;SDS011;259;53.304;9.816;2022-11-23T03:40:13;2.50;;;2.40;;
545;SDS011;259;53.304;9.816;2022-11-23T03:42:39;3.00;;;2.70;;
545;SDS011;259;53.304;9.816;2022-11-23T03:45:05;2.57;;;2.47;;
545;SDS011;259;53.304;9.816;2022-11-23T03:47:32;2.30;;;2.20;;
545;SDS011;259;53.304;9.816;2022-11-23T03:49:57;2.50;;;2.30;;
545;SDS011;259;53.304;9.816;2022-11-23T03:52:23;3.90;;;3.03;;
545;SDS011;259;53.304;9.816;2022-11-23T03:54:48;2.70;;;2.23;;
545;SDS011;259;53.304;9.816;2022-11-23T03:57:14;2.80;;;2.60;;
545;SDS011;259;53.304;9.816;2022-11-23T03:59:39;2.47;;;2.27;;
545;SDS011;259;53.304;9.816;2022-11-23T04:02:05;2.60;;;2.50;;
545;SDS011;259;53.304;9.816;2022-11-23T04:04:32;2.60;;;2.40;;
545;SDS011;259;53.304;9.816;2022-11-23T04:06:58;2.70;;;2.50;;
545;SDS011;259;53.304;9.816;2022-11-23T04:09:24;2.00;;;1.90;;
545;SDS011;259;53.304;9.816;2022-11-23T04:11:49;2.50;;;2.30;;
545;SDS011;259;53.304;9.816;2022-11-23T04:14:15;2.37;;;2.27;;
545;SDS011;259;53.304;9.816;2022-11-23T04:16:41;2.20;;;2.10;;
545;SDS011;259;53.304;9.816;2022-11-23T04:19:06;2.80;;;2.60;;
545;SDS011;259;53.304;9.816;2022-11-23T04:21:32;2.60;;;2.40;;
545;SDS011;259;53.304;9.816;2022-11-23T04:23:57;2.40;;;2.20;;
545;SDS011;259;53.304;9.816;2022-11-23T04:26:23;2.20;;;2.10;;
545;SDS011;259;53.304;9.816;2022-11-23T04:28:48;2.33;;;2.20;;
545;SDS011;259;53.304;9.816;2022-11-23T04:31:14;2.37;;;2.20;;
545;SDS011;259;53.304;9.816;2022-11-23T04:33:39;2.57;;;2.30;;
545;SDS011;259;53.304;9.816;2022-11-23T04:36:05;2.20;;;2.07;;
545;SDS011;259;53.304;9.816;2022-11-23T04:38:31;2.10;;;2.00;;
545;SDS011;259;53.304;9.816;2022-11-23T04:40:56;2.20;;;2.00;;
545;SDS011;259;53.304;9.816;2022-11-23T04:43:22;2.50;;;2.40;;
545;SDS011;259;53.304;9.816;2022-11-23T04:45:47;2.90;;;2.10;;
545;SDS011;259;53.304;9.816;2022-11-23T04:48:13;2.70;;;2.50;;
545;SDS011;259;53.304;9.816;2022-11-23T04:50:38;2.00;;;1.90;;
545;SDS011;259;53.304;9.816;2022-11-23T04:53:06;1.97;;;1.87;;
545;SDS011;259;53.304;9.816;2022-11-23T04:55:31;1.77;;;1.67;;
545;SDS011;259;53.304;9.816;2022-11-23T04:57:57;2.23;;;2.07;;
545;SDS011;259;53.304;9.816;2022-11-23T05:00:23;2.03;;;1.80;;
545;SDS011;259;53.304;9.816;2022-11-23T05:02:48;2.03;;;1.93;;
545;SDS011;259;53.304;9.816;2022-11-23T05:05:14;2.43;;;2.33;;
545;SDS011;259;53.304;9.816;2022-11-23T05:07:39;2.17;;;2.07;;
545;SDS011;259;53.304;9.816;2022-11-23T05:10:05;1.80;;;1.70;;
545;SDS011;259;53.304;9.816;2022-11-23T05:12:31;2.37;;;2.27;;
545;SDS011;259;53.304;9.816;2022-11-23T05:14:57;1.90;;;1.80;;
545;SDS011;259;53.304;9.816;2022-11-23T05:17:22;2.07;;;1.97;;
545;SDS011;259;53.304;9.816;2022-11-23T05:19:48;2.20;;;1.97;;
545;SDS011;259;53.304;9.816;2022-11-23T05:22:14;1.90;;;1.80;;
545;SDS011;259;53.304;9.816;2022-11-23T05:24:39;2.10;;;2.00;;
545;SDS011;259;53.304;9.816;2022-11-23T05:27:05;1.90;;;1.63;;
545;SDS011;259;53.304;9.816;2022-11-23T05:29:30;2.10;;;2.00;;
545;SDS011;259;53.304;9.816;2022-11-23T05:31:56;1.90;;;1.80;;
545;SDS011;259;53.304;9.816;2022-11-23T05:34:21;2.10;;;1.90;;
545;SDS011;259;53.304;9.816;2022-11-23T05:36:47;1.97;;;1.87;;
545;SDS011;259;53.304;9.816;2022-11-23T05:39:12;2.23;;;2.03;;
545;SDS011;259;53.304;9.816;2022-11-23T05:41:38;1.87;;;1.77;;
545;SDS011;259;53.304;9.816;2022-11-23T05:44:04;1.80;;;1.70;;
545;SDS011;259;53.304;9.816;2022-11-23T05:46:29;2.03;;;1.90;;
545;SDS011;259;53.304;9.816;2022-11-23T05:48:55;2.00;;;1.90;;
545;SDS011;259;53.304;9.816;2022-11-23T05:51:20;1.70;;;1.60;;
545;SDS011;259;53.304;9.816;2022-11-23T05:53:46;1.50;;;1.40;;
545;SDS011;259;53.304;9.816;2022-11-23T05:56:12;1.73;;;1.63;;
545;SDS011;259;53.304;9.816;2022-11-23T05:58:37;2.23;;;2.03;;
545;SDS011;259;53.304;9.816;2022-11-23T06:01:03;1.80;;;1.60;;
545;SDS011;259;53.304;9.816;2022-11-23T06:03:28;2.00;;;1.90;;
545;SDS011;259;53.304;9.816;2022-11-23T06:05:54;1.90;;;1.80;;
545;SDS011;259;53.304;9.816;2022-11-23T06:08:20;1.50;;;1.40;;
545;SDS011;259;53.304;9.816;2022-11-23T06:10:45;1.83;;;1.67;;
545;SDS011;259;53.304;9.816;2022-11-23T06:13:11;1.63;;;1.53;;
545;SDS011;259;53.304;9.816;2022-11-23T06:15:36;1.53;;;1.43;;
545;SDS011;259;53.304;9.816;2022-11-23T06:18:02;1.50;;;1.40;;
545;SDS011;259;53.304;9.816;2022-11-23T06:20:28;1.43;;;1.33;;
545;SDS011;259;53.304;9.816;2022-11-23T06:22:53;1.53;;;1.43;;
545;SDS011;259;53.304;9.816;2022-11-23T06:25:20;1.77;;;1.67;;
545;SDS011;259;53.304;9.816;2022-11-23T06:27:55;1.47;;;1.37;;
545;SDS011;259;53.304;9.816;2022-11-23T06:30:23;1.93;;;1.83;;
545;SDS011;259;53.304;9.816;2022-11-23T06:32:49;1.40;;;1.33;;
545;SDS011;259;53.304;9.816;2022-11-23T06:35:14;1.43;;;1.33;;
545;SDS011;259;53.304;9.816;2022-11-23T06:37:40;1.40;;;1.30;;
545;SDS011;259;53.304;9.816;2022-11-23T06:40:06;1.57;;;1.47;;
545;SDS011;259;53.304;9.816;2022-11-23T06:42:33;1.70;;;1.60;;
545;SDS011;259;53.304;9.816;2022-11-23T06:44:58;1.63;;;1.30;;
545;SDS011;259;53.304;9.816;2022-11-23T06:47:24;1.87;;;1.40;;
545;SDS011;259;53.304;9.816;2022-11-23T06:49:49;1.70;;;1.60;;
545;SDS011;259;53.304;9.816;2022-11-23T06:52:15;1.63;;;1.47;;
545;SDS011;259;53.304;9.816;2022-11-23T06:54:40;1.80;;;1.70;;
545;SDS011;259;53.304;9.816;2022-11-23T06:57:06;2.20;;;1.43;;
545;SDS011;259;53.304;9.816;2022-11-23T06:59:32;1.63;;;1.40;;
545;SDS011;259;53.304;9.816;2022-11-23T07:01:58;1.70;;;1.60;;
545;SDS011;259;53.304;9.816;2022-11-23T07:04:23;1.67;;;1.57;;
545;SDS011;259;53.304;9.816;2022-11-23T07:06:49;1.60;;;1.50;;
545;SDS011;259;53.304;9.816;2022-11-23T07:09:14;1.30;;;1.20;;
545;SDS011;259;53.304;9.816;2022-11-23T07:11:40;1.60;;;1.20;;
545;SDS011;259;53.304;9.816;2022-11-23T07:14:06;1.53;;;1.43;;
545;SDS011;259;53.304;9.816;2022-11-23T07:16:31;2.53;;;1.33;;
545;SDS011;259;53.304;9.816;2022-11-23T07:18:57;1.40;;;1.20;;
545;SDS011;259;53.304;9.816;2022-11-23T07:21:23;1.40;;;1.30;;
545;SDS011;259;53.304;9.816;2022-11-23T07:23:49;1.87;;;1.33;;
545;SDS011;259;53.304;9.816;2022-11-23T07:26:14;2.17;;;1.50;;
545;SDS011;259;53.304;9.816;2022-11-23T07:28:40;2.10;;;1.27;;
545;SDS011;259;53.304;9.816;2022-11-23T07:31:05;1.73;;;1.30;;
545;SDS011;259;53.304;9.816;2022-11-23T07:33:31;1.70;;;1.60;;
545;SDS011;259;53.304;9.816;2022-11-23T07:35:59;1.37;;;1.27;;
545;SDS011;259;53.304;9.816;2022-11-23T07:38:26;1.47;;;1.37;;
545;SDS011;259;53.304;9.816;2022-11-23T07:40:52;1.20;;;1.13;;
545;SDS011;259;53.304;9.816;2022-11-23T07:43:18;1.87;;;1.63;;
545;SDS011;259;53.304;9.816;2022-11-23T07:45:43;1.27;;;1.20;;
545;SDS011;259;53.304;9.816;2022-11-23T07:48:09;1.43;;;1.33;;
545;SDS011;259;53.304;9.816;2022-11-23T07:50:35;1.33;;;1.30;;
545;SDS011;259;53.304;9.816;2022-11-23T07:53:02;1.93;;;1.83;;
545;SDS011;259;53.304;9.816;2022-11-23T07:55:29;1.40;;;1.30;;
545;SDS011;259;53.304;9.816;2022-11-23T07:57:55;1.50;;;1.40;;
545;SDS011;259;53.304;9.816;2022-11-23T08:00:21;1.63;;;1.53;;
545;SDS011;259;53.304;9.816;2022-11-23T08:02:48;1.53;;;1.43;;
545;SDS011;259;53.304;9.816;2022-11-23T08:05:14;1.50;;;1.40;;
545;SDS011;259;53.304;9.816;2022-11-23T08:07:39;1.17;;;1.07;;
545;SDS011;259;53.304;9.816;2022-11-23T08:10:05;1.27;;;1.17;;
545;SDS011;259;53.304;9.816;2022-11-23T08:12:31;1.53;;;1.43;;
545;SDS011;259;53.304;9.816;2022-11-23T08:14:57;1.50;;;1.40;;
545;SDS011;259;53.304;9.816;2022-11-23T08:17:22;2.30;;;1.53;;
545;SDS011;259;53.304;9.816;2022-11-23T08:19:48;3.97;;;1.30;;
545;SDS011;259;53.304;9.816;2022-11-23T08:22:13;3.33;;;1.27;;
545;SDS011;259;53.304;9.816;2022-11-23T08:24:39;1.80;;;1.50;;
545;SDS011;259;53.304;9.816;2022-11-23T08:27:04;1.60;;;1.50;;
545;SDS011;259;53.304;9.816;2022-11-23T08:29:30;2.20;;;1.60;;
545;SDS011;259;53.304;9.816;2022-11-23T08:31:55;4.33;;;2.10;;
545;SDS011;259;53.304;9.816;2022-11-23T08:34:21;6.30;;;1.63;;
545;SDS011;259;53.304;9.816;2022-11-23T08:36:46;16.77;;;9.53;;
545;SDS011;259;53.304;9.816;2022-11-23T08:39:12;22.27;;;11.97;;
545;SDS011;259;53.304;9.816;2022-11-23T08:41:39;15.03;;;6.27;;
545;SDS011;259;53.304;9.816;2022-11-23T08:44:05;8.20;;;4.10;;
545;SDS011;259;53.304;9.816;2022-11-23T08:46:33;8.80;;;4.37;;
545;SDS011;259;53.304;9.816;2022-11-23T08:48:59;5.00;;;2.93;;
545;SDS011;259;53.304;9.816;2022-11-23T08:51:24;4.67;;;2.20;;
545;SDS011;259;53.304;9.816;2022-11-23T08:53:50;6.63;;;2.93;;
545;SDS011;259;53.304;9.816;2022-11-23T08:56:16;6.03;;;2.53;;
545;SDS011;259;53.304;9.816;2022-11-23T08:58:41;5.40;;;2.60;;
545;SDS011;259;53.304;9.816;2022-11-23T09:01:08;4.73;;;2.70;;
545;SDS011;259;53.304;9.816;2022-11-23T09:03:34;3.80;;;2.73;;
545;SDS011;259;53.304;9.816;2022-11-23T09:05:59;3.47;;;2.43;;
545;SDS011;259;53.304;9.816;2022-11-23T09:08:25;3.07;;;2.27;;
545;SDS011;259;53.304;9.816;2022-11-23T09:10:51;3.37;;;2.47;;
545;SDS011;259;53.304;9.816;2022-11-23T09:13:17;3.93;;;2.43;;
545;SDS011;259;53.304;9.816;2022-11-23T09:15:42;4.17;;;2.17;;
545;SDS011;259;53.304;9.816;2022-11-23T09:18:08;4.37;;;2.43;;
545;SDS011;259;53.304;9.816;2022-11-23T09:20:35;5.67;;;3.03;;
545;SDS011;259;53.304;9.816;2022-11-23T09:23:01;10.57;;;3.77;;
545;SDS011;259;53.304;9.816;2022-11-23T09:25:26;11.93;;;3.30;;
545;SDS011;259;53.304;9.816;2022-11-23T09:27:55;7.63;;;2.47;;
545;SDS011;259;53.304;9.816;2022-11-23T09:30:22;14.10;;;2.90;;
545;SDS011;259;53.304;9.816;2022-11-23T09:32:48;3.93;;;2.40;;
545;SDS011;259;53.304;9.816;2022-11-23T09:35:13;6.93;;;2.63;;
545;SDS011;259;53.304;9.816;2022-11-23T09:37:39;4.13;;;2.20;;
545;SDS011;259;53.304;9.816;2022-11-23T09:40:04;3.10;;;2.00;;
545;SDS011;259;53.304;9.816;2022-11-23T09:50:55;4.43;;;2.10;;
545;SDS011;259;53.304;9.816;2022-11-23T09:53:32;5.13;;;2.17;;
545;SDS011;259;53.304;9.816;2022-11-23T09:56:18;3.90;;;1.90;;
545;SDS011;259;53.304;9.816;2022-11-23T09:58:53;6.13;;;2.50;;
545;SDS011;259;53.304;9.816;2022-11-23T10:01:21;5.50;;;2.33;;
545;SDS011;259;53.304;9.816;2022-11-23T10:03:47;3.97;;;1.87;;
545;SDS011;259;53.304;9.816;2022-11-23T10:06:19;4.00;;;1.60;;
545;SDS011;259;53.304;9.816;2022-11-23T10:14:28;3.23;;;2.33;;
545;SDS011;259;53.304;9.816;2022-11-23T10:23:05;4.60;;;1.33;;
545;SDS011;259;53.304;9.816;2022-11-23T10:25:38;4.10;;;1.90;;
545;SDS011;259;53.304;9.816;2022-11-23T10:28:13;3.37;;;1.90;;
545;SDS011;259;53.304;9.816;2022-11-23T10:30:47;1.60;;;1.47;;
545;SDS011;259;53.304;9.816;2022-11-23T10:35:47;2.67;;;1.63;;
545;SDS011;259;53.304;9.816;2022-11-23T10:38:17;2.60;;;2.10;;
545;SDS011;259;53.304;9.816;2022-11-23T10:40:56;1.43;;;1.17;;
545;SDS011;259;53.304;9.816;2022-11-23T10:43:37;1.80;;;1.60;;
545;SDS011;259;53.304;9.816;2022-11-23T10:46:28;2.70;;;1.50;;
545;SDS011;259;53.304;9.816;2022-11-23T10:51:56;2.83;;;1.60;;
545;SDS011;259;53.304;9.816;2022-11-23T10:56:48;2.83;;;1.43;;
545;SDS011;259;53.304;9.816;2022-11-23T10:59:28;2.00;;;1.10;;
545;SDS011;259;53.304;9.816;2022-11-23T11:01:58;2.10;;;1.67;;
545;SDS011;259;53.304;9.816;2022-11-23T11:04:46;2.87;;;1.70;;
545;SDS011;259;53.304;9.816;2022-11-23T11:07:22;1.63;;;1.53;;
545;SDS011;259;53.304;9.816;2022-11-23T11:09:49;1.30;;;1.20;;
545;SDS011;259;53.304;9.816;2022-11-23T11:12:18;1.97;;;1.83;;
545;SDS011;259;53.304;9.816;2022-11-23T11:14:57;1.43;;;1.30;;
545;SDS011;259;53.304;9.816;2022-11-23T11:17:38;1.70;;;1.10;;
545;SDS011;259;53.304;9.816;2022-11-23T11:22:58;1.90;;;1.77;;
545;SDS011;259;53.304;9.816;2022-11-23T11:25:36;1.77;;;1.27;;
545;SDS011;259;53.304;9.816;2022-11-23T11:28:03;1.43;;;1.23;;
545;SDS011;259;53.304;9.816;2022-11-23T11:30:44;1.33;;;1.00;;
545;SDS011;259;53.304;9.816;2022-11-23T11:33:28;1.57;;;1.40;;
545;SDS011;259;53.304;9.816;2022-11-23T11:35:58;1.73;;;1.07;;
545;SDS011;259;53.304;9.816;2022-11-23T11:38:28;2.30;;;1.33;;
545;SDS011;259;53.304;9.816;2022-11-23T11:40:59;1.47;;;1.13;;
545;SDS011;259;53.304;9.816;2022-11-23T11:43:39;1.30;;;1.10;;
545;SDS011;259;53.304;9.816;2022-11-23T11:46:11;1.13;;;1.00;;
545;SDS011;259;53.304;9.816;2022-11-23T11:51:27;2.30;;;1.40;;
545;SDS011;259;53.304;9.816;2022-11-23T11:58:57;0.93;;;0.93;;
545;SDS011;259;53.304;9.816;2022-11-23T12:01:42;2.10;;;1.00;;
545;SDS011;259;53.304;9.816;2022-11-23T12:09:41;1.67;;;1.00;;
545;SDS011;259;53.304;9.816;2022-11-23T12:12:14;2.43;;;1.33;;
545;SDS011;259;53.304;9.816;2022-11-23T12:14:41;1.57;;;1.47;;
545;SDS011;259;53.304;9.816;2022-11-23T12:26:01;1.97;;;1.00;;
545;SDS011;259;53.304;9.816;2022-11-23T12:28:40;2.47;;;1.77;;
545;SDS011;259;53.304;9.816;2022-11-23T12:32:11;2.17;;;1.20;;
545;SDS011;259;53.304;9.816;2022-11-23T12:37:27;1.20;;;1.10;;
545;SDS011;259;53.304;9.816;2022-11-23T12:43:00;1.50;;;1.30;;
545;SDS011;259;53.304;9.816;2022-11-23T12:48:27;1.60;;;0.83;;
545;SDS011;259;53.304;9.816;2022-11-23T12:54:06;0.90;;;0.90;;
545;SDS011;259;53.304;9.816;2022-11-23T12:56:47;1.10;;;1.00;;
545;SDS011;259;53.304;9.816;2022-11-23T12:59:34;1.10;;;1.00;;
545;SDS011;259;53.304;9.816;2022-11-23T13:02:10;1.17;;;1.07;;
545;SDS011;259;53.304;9.816;2022-11-23T13:04:59;3.27;;;1.10;;
545;SDS011;259;53.304;9.816;2022-11-23T13:21:48;1.33;;;1.00;;
545;SDS011;259;53.304;9.816;2022-11-23T13:24:27;1.00;;;0.90;;
545;SDS011;259;53.304;9.816;2022-11-23T13:35:03;8.03;;;1.60;;
545;SDS011;259;53.304;9.816;2022-11-23T13:40:44;5.27;;;1.83;;
545;SDS011;259;53.304;9.816;2022-11-23T13:43:28;2.20;;;1.27;;
545;SDS011;259;53.304;9.816;2022-11-23T13:48:51;3.50;;;1.40;;
545;SDS011;259;53.304;9.816;2022-11-23T13:51:28;5.80;;;1.80;;
545;SDS011;259;53.304;9.816;2022-11-23T13:53:57;2.07;;;1.83;;
545;SDS011;259;53.304;9.816;2022-11-23T13:56:35;5.13;;;2.23;;
545;SDS011;259;53.304;9.816;2022-11-23T13:59:24;22.50;;;10.90;;
545;SDS011;259;53.304;9.816;2022-11-23T14:04:24;23.87;;;13.17;;
545;SDS011;259;53.304;9.816;2022-11-23T14:06:55;27.83;;;12.07;;
545;SDS011;259;53.304;9.816;2022-11-23T14:12:13;11.90;;;5.93;;
545;SDS011;259;53.304;9.816;2022-11-23T14:23:19;46.40;;;41.37;;
545;SDS011;259;53.304;9.816;2022-11-23T14:29:29;5.17;;;4.20;;
545;SDS011;259;53.304;9.816;2022-11-23T14:32:19;5.60;;;4.23;;
545;SDS011;259;53.304;9.816;2022-11-23T14:35:05;6.90;;;4.20;;
545;SDS011;259;53.304;9.816;2022-11-23T14:42:55;3.57;;;3.27;;
545;SDS011;259;53.304;9.816;2022-11-23T14:45:22;3.63;;;3.30;;
545;SDS011;259;53.304;9.816;2022-11-23T14:47:52;6.80;;;3.40;;
545;SDS011;259;53.304;9.816;2022-11-23T14:50:24;3.07;;;2.80;;
545;SDS011;259;53.304;9.816;2022-11-23T14:52:52;3.42;;;3.00;;
545;SDS011;259;53.304;9.816;2022-11-23T14:55:21;7.73;;;3.50;;
545;SDS011;259;53.304;9.816;2022-11-23T14:57:50;4.93;;;2.83;;
545;SDS011;259;53.304;9.816;2022-11-23T15:00:28;17.13;;;3.60;;
545;SDS011;259;53.304;9.816;2022-11-23T15:03:07;12.07;;;3.83;;
545;SDS011;259;53.304;9.816;2022-11-23T15:05:41;15.50;;;3.57;;
545;SDS011;259;53.304;9.816;2022-11-23T15:10:50;10.87;;;3.20;;
545;SDS011;259;53.304;9.816;2022-11-23T15:13:30;20.93;;;3.67;;
545;SDS011;259;53.304;9.816;2022-11-23T15:15:57;13.60;;;3.50;;
545;SDS011;259;53.304;9.816;2022-11-23T15:20:55;19.83;;;4.17;;
545;SDS011;259;53.304;9.816;2022-11-23T15:23:23;21.53;;;4.40;;
545;SDS011;259;53.304;9.816;2022-11-23T15:25:54;24.33;;;4.17;;
545;SDS011;259;53.304;9.816;2022-11-23T15:28:30;16.20;;;4.07;;
545;SDS011;259;53.304;9.816;2022-11-23T15:30:58;17.27;;;4.20;;
545;SDS011;259;53.304;9.816;2022-11-23T15:33:23;16.73;;;3.90;;
545;SDS011;259;53.304;9.816;2022-11-23T15:35:50;14.50;;;3.70;;
545;SDS011;259;53.304;9.816;2022-11-23T15:38:17;16.27;;;3.33;;
545;SDS011;259;53.304;9.816;2022-11-23T15:40:44;14.10;;;4.30;;
545;SDS011;259;53.304;9.816;2022-11-23T15:43:12;20.70;;;3.57;;
545;SDS011;259;53.304;9.816;2022-11-23T15:48:12;24.30;;;4.03;;
545;SDS011;259;53.304;9.816;2022-11-23T15:50:53;22.33;;;4.63;;
545;SDS011;259;53.304;9.816;2022-11-23T15:53:26;24.80;;;4.13;;
545;SDS011;259;53.304;9.816;2022-11-23T15:56:00;27.43;;;3.93;;
545;SDS011;259;53.304;9.816;2022-11-23T15:58:28;19.20;;;3.77;;
545;SDS011;259;53.304;9.816;2022-11-23T16:00:59;17.40;;;3.43;;
545;SDS011;259;53.304;9.816;2022-11-23T16:03:33;19.37;;;3.50;;
545;SDS011;259;53.304;9.816;2022-11-23T16:08:36;14.90;;;3.83;;
545;SDS011;259;53.304;9.816;2022-11-23T16:11:04;21.50;;;3.50;;
545;SDS011;259;53.304;9.816;2022-11-23T16:13:49;13.20;;;3.57;;
545;SDS011;259;53.304;9.816;2022-11-23T16:16:16;25.63;;;5.10;;
545;SDS011;259;53.304;9.816;2022-11-23T16:18:45;18.50;;;4.53;;
545;SDS011;259;53.304;9.816;2022-11-23T16:21:17;15.00;;;4.03;;
545;SDS011;259;53.304;9.816;2022-11-23T16:26:10;21.10;;;4.17;;
545;SDS011;259;53.304;9.816;2022-11-23T16:28:37;12.00;;;3.07;;
545;SDS011;259;53.304;9.816;2022-11-23T16:34:16;16.40;;;2.93;;
545;SDS011;259;53.304;9.816;2022-11-23T16:36:42;12.03;;;2.93;;
545;SDS011;259;53.304;9.816;2022-11-23T16:39:08;9.30;;;2.27;;
545;SDS011;259;53.304;9.816;2022-11-23T16:41:33;10.53;;;2.13;;
545;SDS011;259;53.304;9.816;2022-11-23T16:43:59;8.70;;;2.50;;
545;SDS011;259;53.304;9.816;2022-11-23T16:46:25;6.67;;;2.47;;
545;SDS011;259;53.304;9.816;2022-11-23T16:48:50;11.33;;;2.60;;
545;SDS011;259;53.304;9.816;2022-11-23T16:51:18;8.20;;;2.73;;
545;SDS011;259;53.304;9.816;2022-11-23T16:53:44;8.90;;;2.50;;
545;SDS011;259;53.304;9.816;2022-11-23T16:56:13;6.03;;;2.43;;
545;SDS011;259;53.304;9.816;2022-11-23T16:58:45;12.30;;;2.70;;
545;SDS011;259;53.304;9.816;2022-11-23T17:01:14;5.17;;;1.60;;
545;SDS011;259;53.304;9.816;2022-11-23T17:03:44;10.70;;;2.10;;
545;SDS011;259;53.304;9.816;2022-11-23T17:06:11;4.40;;;1.60;;
545;SDS011;259;53.304;9.816;2022-11-23T17:08:38;4.37;;;2.07;;
545;SDS011;259;53.304;9.816;2022-11-23T17:11:03;4.13;;;1.60;;
545;SDS011;259;53.304;9.816;2022-11-23T17:13:29;5.17;;;2.03;;
545;SDS011;259;53.304;9.816;2022-11-23T17:15:55;6.50;;;1.73;;
545;SDS011;259;53.304;9.816;2022-11-23T17:18:20;5.50;;;2.10;;
545;SDS011;259;53.304;9.816;2022-11-23T17:20:46;4.77;;;1.90;;
545;SDS011;259;53.304;9.816;2022-11-23T17:23:11;4.63;;;1.90;;
545;SDS011;259;53.304;9.816;2022-11-23T17:25:37;5.00;;;1.43;;
545;SDS011;259;53.304;9.816;2022-11-23T17:28:04;5.07;;;1.50;;
545;SDS011;259;53.304;9.816;2022-11-23T17:30:35;5.23;;;2.10;;
545;SDS011;259;53.304;9.816;2022-11-23T17:33:00;2.40;;;1.80;;
545;SDS011;259;53.304;9.816;2022-11-23T17:35:26;6.67;;;1.70;;
545;SDS011;259;53.304;9.816;2022-11-23T17:37:52;7.03;;;1.73;;
545;SDS011;259;53.304;9.816;2022-11-23T17:40:18;6.40;;;1.60;;
545;SDS011;259;53.304;9.816;2022-11-23T17:42:51;2.53;;;1.80;;
545;SDS011;259;53.304;9.816;2022-11-23T17:45:16;3.00;;;1.40;;
545;SDS011;259;53.304;9.816;2022-11-23T17:47:42;4.33;;;1.50;;
545;SDS011;259;53.304;9.816;2022-11-23T17:50:12;1.97;;;1.30;;
545;SDS011;259;53.304;9.816;2022-11-23T17:52:41;1.47;;;1.20;;
545;SDS011;259;53.304;9.816;2022-11-23T17:55:10;3.40;;;1.70;;
545;SDS011;259;53.304;9.816;2022-11-23T17:57:37;3.70;;;1.60;;
545;SDS011;259;53.304;9.816;2022-11-23T18:00:04;3.60;;;1.47;;
545;SDS011;259;53.304;9.816;2022-11-23T18:02:45;3.60;;;1.43;;
545;SDS011;259;53.304;9.816;2022-11-23T18:05:10;2.63;;;1.50;;
545;SDS011;259;53.304;9.816;2022-11-23T18:07:36;1.93;;;1.73;;
545;SDS011;259;53.304;9.816;2022-11-23T18:10:02;2.13;;;1.40;;
545;SDS011;259;53.304;9.816;2022-11-23T18:12:28;7.40;;;1.67;;